createdAt,value
2023-04-24T00:00:35.090Z,77.64
2023-04-24T00:03:02.744Z,75.79
2023-04-24T00:05:30.649Z,73.93
2023-04-24T00:07:58.157Z,73.36
2023-04-24T00:10:25.831Z,73.04
2023-04-24T00:12:53.342Z,73.29
2023-04-24T00:15:22.223Z,72.96
2023-04-24T00:17:49.989Z,73.11
2023-04-24T00:20:17.890Z,75.66
2023-04-24T00:22:45.473Z,75.38
2023-04-24T00:25:12.959Z,74.45
2023-04-24T00:27:40.583Z,74.22
2023-04-24T00:30:09.237Z,73.62
2023-04-24T00:32:38.126Z,73.39
2023-04-24T00:35:07.082Z,73.66
2023-04-24T00:37:34.619Z,74.03
2023-04-24T00:40:02.152Z,74.23
2023-04-24T00:42:29.681Z,74.33
2023-04-24T00:44:58.434Z,74.30
2023-04-24T00:47:27.202Z,74.56
2023-04-24T00:49:56.795Z,74.90
2023-04-24T00:52:25.255Z,74.61
2023-04-24T00:54:52.916Z,74.46
2023-04-24T00:57:20.491Z,74.88
2023-04-24T00:59:48.496Z,74.43
2023-04-24T01:02:16.655Z,74.31
2023-04-24T01:04:44.673Z,74.50
2023-04-24T01:07:13.632Z,73.80
2023-04-24T01:09:42.730Z,73.79
2023-04-24T01:12:11.415Z,74.24
2023-04-24T01:14:39.416Z,73.63
2023-04-24T01:17:07.048Z,73.76
2023-04-24T01:19:34.740Z,73.58
2023-04-24T01:22:04.455Z,73.64
2023-04-24T01:24:33.565Z,73.39
2023-04-24T01:27:02.148Z,73.53
2023-04-24T01:29:29.953Z,73.46
2023-04-24T01:31:59.496Z,73.65
2023-04-24T01:34:27.621Z,73.25
2023-04-24T01:36:55.371Z,73.06
2023-04-24T01:39:24.208Z,72.92
2023-04-24T01:41:53.232Z,72.75
2023-04-24T01:44:20.770Z,72.74
2023-04-24T01:46:48.700Z,72.73
2023-04-24T01:49:16.497Z,73.06
2023-04-24T01:51:44.137Z,72.99
2023-04-24T01:54:11.806Z,73.00
2023-04-24T01:56:42.586Z,73.28
2023-04-24T01:59:12.524Z,73.16
2023-04-24T02:01:40.655Z,73.25
2023-04-24T02:04:09.857Z,73.17
2023-04-24T02:06:37.512Z,73.44
2023-04-24T02:09:05.231Z,73.72
2023-04-24T02:11:32.784Z,74.08
2023-04-24T02:14:00.370Z,73.83
2023-04-24T02:16:31.435Z,74.00
2023-04-24T02:18:59.063Z,74.04
2023-04-24T02:21:26.588Z,74.06
2023-04-24T02:23:54.111Z,73.88
2023-04-24T02:26:21.801Z,73.96
2023-04-24T02:28:49.504Z,74.06
2023-04-24T02:31:17.286Z,74.12
2023-04-24T02:33:46.148Z,77.59
2023-04-24T02:36:14.198Z,75.65
2023-04-24T02:38:41.918Z,74.50
2023-04-24T02:41:09.467Z,76.12
2023-04-24T02:43:36.971Z,77.81
2023-04-24T02:46:04.725Z,75.83
2023-04-24T02:48:32.352Z,74.57
2023-04-24T02:51:01.274Z,74.12
2023-04-24T02:53:30.827Z,74.23
2023-04-24T02:55:58.705Z,73.97
2023-04-24T02:58:27.151Z,73.65
2023-04-24T03:00:56.310Z,73.64
2023-04-24T03:03:24.890Z,73.87
2023-04-24T03:05:52.683Z,73.86
2023-04-24T03:08:21.554Z,73.95
2023-04-24T03:10:49.055Z,73.88
2023-04-24T03:13:17.248Z,74.10
2023-04-24T03:15:44.894Z,74.46
2023-04-24T03:18:12.606Z,74.43
2023-04-24T03:20:40.257Z,74.38
2023-04-24T03:23:07.821Z,74.28
2023-04-24T03:25:36.738Z,77.33
2023-04-24T03:28:04.254Z,75.97
2023-04-24T03:30:31.792Z,77.43
2023-04-24T03:32:59.331Z,76.12
2023-04-24T03:35:27.012Z,76.40
2023-04-24T03:37:54.505Z,75.50
2023-04-24T03:40:22.045Z,74.95
2023-04-24T03:42:50.912Z,75.30
2023-04-24T03:45:18.483Z,73.91
2023-04-24T03:47:46.017Z,73.52
2023-04-24T03:50:13.563Z,73.63
2023-04-24T03:52:41.074Z,73.16
2023-04-24T03:55:09.396Z,76.63
2023-04-24T03:57:36.895Z,76.37
2023-04-24T04:00:07.255Z,73.75
2023-04-24T04:02:34.954Z,77.09
2023-04-24T04:05:03.218Z,77.60
2023-04-24T04:07:31.669Z,78.00
2023-04-24T04:09:59.185Z,76.46
2023-04-24T04:12:26.672Z,75.60
2023-04-24T04:14:54.209Z,75.73
2023-04-24T04:17:23.095Z,78.29
2023-04-24T04:19:50.682Z,78.55
2023-04-24T04:22:18.162Z,75.77
2023-04-24T04:24:47.187Z,75.12
2023-04-24T04:27:14.797Z,75.71
2023-04-24T04:29:43.169Z,74.71
2023-04-24T04:32:10.928Z,75.18
2023-04-24T04:34:40.679Z,74.87
2023-04-24T04:37:08.260Z,76.81
2023-04-24T04:39:35.803Z,76.63
2023-04-24T04:42:03.317Z,78.75
2023-04-24T04:44:31.642Z,79.87
2023-04-24T04:46:59.395Z,80.66
2023-04-24T04:49:29.366Z,80.68
2023-04-24T04:51:58.402Z,77.97
2023-04-24T04:54:25.983Z,75.97
2023-04-24T04:56:53.684Z,74.95
2023-04-24T04:59:21.273Z,74.61
2023-04-24T05:01:48.850Z,76.28
2023-04-24T05:04:16.521Z,77.86
2023-04-24T05:06:44.167Z,75.26
2023-04-24T05:09:13.152Z,74.89
2023-04-24T05:11:40.664Z,76.52
2023-04-24T05:14:08.181Z,75.06
2023-04-24T05:16:35.799Z,76.44
2023-04-24T05:19:03.375Z,74.97
2023-04-24T05:21:31.790Z,73.63
2023-04-24T05:23:59.367Z,75.37
2023-04-24T05:26:28.343Z,75.32
2023-04-24T05:28:55.838Z,75.40
2023-04-24T05:31:23.388Z,76.30
2023-04-24T05:33:50.958Z,76.02
2023-04-24T05:36:18.623Z,75.88
2023-04-24T05:38:46.280Z,76.00
2023-04-24T05:41:13.807Z,77.31
2023-04-24T05:43:42.704Z,74.39
2023-04-24T05:46:10.442Z,73.32
2023-04-24T05:48:38.010Z,71.92
2023-04-24T05:51:05.713Z,72.85
2023-04-24T05:53:33.210Z,73.50
2023-04-24T05:56:00.783Z,73.52
2023-04-24T05:58:28.347Z,73.05
2023-04-24T06:00:58.392Z,75.62
2023-04-24T06:03:26.308Z,74.05
2023-04-24T06:05:53.928Z,74.38
2023-04-24T06:08:21.483Z,75.06
2023-04-24T06:10:49.070Z,75.03
2023-04-24T06:13:16.913Z,75.91
2023-04-24T06:15:45.331Z,76.26
2023-04-24T06:18:14.356Z,73.54
2023-04-24T06:20:41.932Z,75.60
2023-04-24T06:23:09.513Z,75.07
2023-04-24T06:25:37.286Z,75.32
2023-04-24T06:28:04.870Z,74.55
2023-04-24T06:30:32.542Z,74.90
2023-04-24T06:33:09.304Z,73.84
2023-04-24T06:35:48.076Z,71.98
2023-04-24T06:38:16.930Z,73.07
2023-04-24T06:40:44.545Z,73.83
2023-04-24T06:43:12.119Z,72.51
2023-04-24T06:45:40.872Z,72.74
2023-04-24T06:48:08.637Z,71.01
2023-04-24T06:50:36.279Z,70.50
2023-04-24T06:53:05.204Z,72.86
2023-04-24T06:55:32.707Z,72.19
2023-04-24T06:58:00.611Z,72.24
2023-04-24T07:00:28.396Z,70.60
2023-04-24T07:02:56.222Z,71.25
2023-04-24T07:05:24.307Z,70.58
2023-04-24T07:07:52.232Z,69.26
2023-04-24T07:10:22.022Z,69.36
2023-04-24T07:12:49.559Z,69.75
2023-04-24T07:15:17.267Z,69.21
2023-04-24T07:17:45.371Z,69.35
2023-04-24T07:20:15.326Z,68.99
2023-04-24T07:22:42.883Z,67.89
2023-04-24T07:25:11.133Z,67.87
2023-04-24T07:27:40.036Z,71.29
2023-04-24T07:30:08.869Z,68.11
2023-04-24T07:32:36.953Z,68.34
2023-04-24T07:35:04.678Z,68.70
2023-04-24T07:37:32.253Z,69.41
2023-04-24T07:39:59.987Z,70.03
2023-04-24T07:42:27.550Z,69.16
2023-04-24T07:44:56.515Z,67.39
2023-04-24T07:47:24.229Z,66.22
2023-04-24T07:49:52.001Z,66.96
2023-04-24T07:52:19.525Z,65.77
2023-04-24T07:54:47.097Z,65.50
2023-04-24T07:57:14.818Z,64.25
2023-04-24T07:59:42.805Z,62.63
2023-04-24T08:02:12.879Z,64.01
2023-04-24T08:04:40.928Z,64.45
2023-04-24T08:07:08.819Z,63.52
2023-04-24T08:09:36.427Z,65.03
2023-04-24T08:12:04.413Z,65.93
2023-04-24T08:14:32.331Z,65.94
2023-04-24T08:17:01.101Z,62.47
2023-04-24T08:19:30.051Z,62.82
2023-04-24T08:21:57.739Z,61.01
2023-04-24T08:24:25.548Z,60.32
2023-04-24T08:26:55.008Z,60.36
2023-04-24T08:29:23.053Z,56.21
2023-04-24T08:31:50.707Z,59.46
2023-04-24T08:34:18.286Z,56.99
2023-04-24T08:36:47.869Z,57.74
2023-04-24T08:39:15.663Z,58.04
2023-04-24T08:41:43.957Z,59.29
2023-04-24T08:44:12.106Z,58.61
2023-04-24T08:46:39.989Z,61.04
2023-04-24T08:49:07.584Z,61.04
2023-04-24T08:51:35.252Z,61.23
2023-04-24T08:54:05.388Z,61.78
2023-04-24T08:56:35.931Z,60.86
2023-04-24T08:59:03.806Z,61.71
2023-04-24T09:01:34.061Z,61.83
2023-04-24T09:04:03.655Z,60.25
2023-04-24T09:06:33.155Z,59.72
2023-04-24T09:09:04.365Z,58.70
2023-04-24T09:11:33.217Z,58.53
2023-04-24T09:14:01.534Z,57.03
2023-04-24T09:16:30.784Z,57.99
2023-04-24T09:18:58.432Z,56.64
2023-04-24T09:21:25.984Z,58.57
2023-04-24T09:24:00.300Z,54.17
2023-04-24T09:26:32.344Z,56.24
2023-04-24T09:29:00.538Z,58.39
2023-04-24T09:31:30.853Z,56.78
2023-04-24T09:34:01.694Z,55.84
2023-04-24T09:36:33.910Z,56.32
2023-04-24T09:39:02.179Z,56.22
2023-04-24T09:41:31.152Z,57.87
2023-04-24T09:43:59.913Z,54.29
2023-04-24T09:46:34.146Z,57.05
2023-04-24T09:49:10.684Z,54.23
2023-04-24T09:51:39.633Z,55.34
2023-04-24T09:54:16.563Z,57.38
2023-04-24T09:56:47.263Z,53.22
2023-04-24T09:59:15.476Z,51.88
2023-04-24T10:01:45.684Z,51.83
2023-04-24T10:04:21.253Z,50.22
2023-04-24T10:06:51.225Z,50.25
2023-04-24T10:09:19.941Z,49.74
2023-04-24T10:11:50.977Z,51.38
2023-04-24T10:14:20.201Z,49.43
2023-04-24T10:16:48.788Z,51.63
2023-04-24T10:19:17.509Z,51.09
2023-04-24T10:21:47.654Z,54.48
2023-04-24T10:24:16.683Z,55.10
2023-04-24T10:26:46.171Z,53.91
2023-04-24T10:29:16.943Z,52.54
2023-04-24T10:31:46.648Z,52.53
2023-04-24T10:34:16.426Z,52.19
2023-04-24T10:36:50.096Z,50.75
2023-04-24T10:39:19.029Z,50.73
2023-04-24T10:41:47.361Z,52.85
2023-04-24T10:44:17.710Z,53.36
2023-04-24T10:46:48.484Z,51.17
2023-04-24T10:49:16.235Z,52.98
2023-04-24T10:51:49.243Z,52.17
2023-04-24T10:54:27.540Z,52.57
2023-04-24T10:57:15.376Z,50.59
2023-04-24T10:59:46.000Z,52.32
2023-04-24T11:02:16.426Z,48.33
2023-04-24T11:04:44.871Z,51.04
2023-04-24T11:07:12.963Z,49.67
2023-04-24T11:09:41.962Z,49.84
2023-04-24T11:12:12.156Z,51.13
2023-04-24T11:15:03.972Z,50.13
2023-04-24T11:17:32.903Z,49.52
2023-04-24T11:20:19.014Z,49.04
2023-04-24T11:22:56.306Z,48.87
2023-04-24T11:25:24.576Z,50.07
2023-04-24T11:27:52.362Z,50.70
2023-04-24T11:30:22.500Z,52.24
2023-04-24T11:32:52.387Z,50.97
2023-04-24T11:35:22.189Z,49.65
2023-04-24T11:40:25.924Z,46.89
2023-04-24T11:42:56.404Z,45.90
2023-04-24T11:45:27.910Z,47.54
2023-04-24T11:47:55.823Z,47.06
2023-04-24T11:50:27.728Z,44.95
2023-04-24T11:52:56.426Z,48.64
2023-04-24T11:55:29.210Z,49.51
2023-04-24T11:57:58.659Z,49.55
2023-04-24T12:00:29.450Z,48.12
2023-04-24T12:03:07.480Z,48.29
2023-04-24T12:05:36.124Z,47.67
2023-04-24T12:08:04.172Z,48.29
2023-04-24T12:10:34.204Z,47.74
2023-04-24T12:13:02.617Z,46.15
2023-04-24T12:15:31.851Z,46.70
2023-04-24T12:17:59.886Z,46.57
2023-04-24T12:20:32.087Z,46.44
2023-04-24T12:23:01.470Z,46.99
2023-04-24T12:25:30.505Z,45.56
2023-04-24T12:28:12.571Z,45.32
2023-04-24T12:30:45.223Z,45.80
2023-04-24T12:33:13.050Z,47.25
2023-04-24T12:35:42.788Z,46.85
2023-04-24T12:38:11.615Z,44.47
2023-04-24T12:40:39.281Z,44.89
2023-04-24T12:43:15.889Z,45.68
2023-04-24T12:45:45.827Z,46.54
2023-04-24T12:48:15.392Z,46.08
2023-04-24T12:50:46.021Z,47.20
2023-04-24T12:53:14.897Z,47.70
2023-04-24T12:55:42.583Z,47.91
2023-04-24T12:58:10.400Z,46.02
2023-04-24T13:00:38.373Z,45.74
2023-04-24T13:03:07.467Z,46.64
2023-04-24T13:05:35.212Z,45.86
2023-04-24T13:08:02.786Z,48.41
2023-04-24T13:10:30.533Z,49.77
2023-04-24T13:12:58.653Z,50.41
2023-04-24T13:15:26.162Z,49.91
2023-04-24T13:17:53.750Z,49.03
2023-04-24T13:20:22.699Z,49.01
2023-04-24T13:22:50.247Z,51.95
2023-04-24T13:25:18.887Z,51.52
2023-04-24T13:27:46.665Z,50.57
2023-04-24T13:30:14.588Z,53.04
2023-04-24T13:32:42.233Z,52.27
2023-04-24T13:35:10.703Z,53.06
2023-04-24T13:37:39.831Z,54.08
2023-04-24T13:40:08.943Z,52.72
2023-04-24T13:42:36.668Z,50.57
2023-04-24T13:45:17.792Z,53.88
2023-04-24T13:47:52.898Z,53.19
2023-04-24T13:50:20.939Z,52.96
2023-04-24T13:52:50.409Z,53.40
2023-04-24T13:55:18.180Z,53.19
2023-04-24T13:57:45.881Z,49.93
2023-04-24T14:00:14.727Z,51.28
2023-04-24T14:02:42.608Z,52.50
2023-04-24T14:05:11.916Z,49.61
2023-04-24T14:07:39.486Z,51.92
2023-04-24T14:10:09.505Z,52.46
2023-04-24T14:12:37.128Z,51.94
2023-04-24T14:15:06.220Z,51.16
2023-04-24T14:17:33.832Z,49.02
2023-04-24T14:20:01.575Z,50.87
2023-04-24T14:22:29.261Z,52.35
2023-04-24T14:24:56.864Z,52.07
2023-04-24T14:27:26.791Z,50.77
2023-04-24T14:29:54.610Z,52.05
2023-04-24T14:32:22.522Z,53.99
2023-04-24T14:34:50.470Z,54.29
2023-04-24T14:37:18.164Z,54.10
2023-04-24T14:39:49.994Z,56.12
2023-04-24T14:42:25.620Z,58.83
2023-04-24T14:44:53.297Z,58.56
2023-04-24T14:47:22.673Z,57.96
2023-04-24T14:49:50.529Z,56.19
2023-04-24T14:52:18.159Z,57.85
2023-04-24T14:54:46.043Z,56.71
2023-04-24T14:57:15.894Z,55.76
2023-04-24T14:59:45.527Z,54.84
2023-04-24T15:02:16.353Z,52.81
2023-04-24T15:04:44.968Z,52.22
2023-04-24T15:07:12.655Z,54.86
2023-04-24T15:09:40.783Z,53.18
2023-04-24T15:12:08.504Z,53.69
2023-04-24T15:14:36.253Z,54.80
2023-04-24T15:17:05.369Z,56.14
2023-04-24T15:19:33.411Z,58.67
2023-04-24T15:22:01.046Z,60.15
2023-04-24T15:24:28.537Z,58.62
2023-04-24T15:26:57.460Z,61.15
2023-04-24T15:29:27.969Z,62.09
2023-04-24T15:31:55.725Z,62.29
2023-04-24T15:34:24.687Z,60.88
2023-04-24T15:36:52.315Z,61.77
2023-04-24T15:39:20.043Z,61.82
2023-04-24T15:41:47.600Z,61.14
2023-04-24T15:44:15.132Z,60.60
2023-04-24T15:46:42.662Z,60.95
2023-04-24T15:49:11.321Z,61.75
2023-04-24T15:51:40.313Z,60.50
2023-04-24T15:54:07.882Z,59.81
2023-04-24T15:56:37.016Z,60.85
2023-04-24T15:59:04.616Z,61.40
2023-04-24T16:01:32.377Z,62.06
2023-04-24T16:04:00.173Z,61.58
2023-04-24T16:06:27.957Z,62.68
2023-04-24T16:08:59.185Z,62.26
2023-04-24T16:11:27.644Z,62.38
2023-04-24T16:13:55.314Z,60.81
2023-04-24T16:16:24.561Z,61.45
2023-04-24T16:18:54.173Z,61.06
2023-04-24T16:21:22.042Z,62.10
2023-04-24T16:23:50.244Z,61.64
2023-04-24T16:26:19.595Z,62.10
2023-04-24T16:28:54.629Z,62.33
2023-04-24T16:31:22.737Z,61.49
2023-04-24T16:33:50.713Z,61.83
2023-04-24T16:36:18.691Z,61.81
2023-04-24T16:38:46.949Z,61.67
2023-04-24T16:41:14.790Z,62.02
2023-04-24T16:43:43.798Z,61.84
2023-04-24T16:46:11.501Z,61.23
2023-04-24T16:48:39.199Z,61.53
2023-04-24T16:51:06.946Z,61.45
2023-04-24T16:53:34.537Z,59.85
2023-04-24T16:56:02.137Z,60.71
2023-04-24T16:58:29.952Z,60.46
2023-04-24T17:00:59.322Z,62.30
2023-04-24T17:03:27.263Z,61.66
2023-04-24T17:05:54.889Z,60.68
2023-04-24T17:08:23.793Z,60.81
2023-04-24T17:10:51.402Z,59.59
2023-04-24T17:13:18.955Z,57.97
2023-04-24T17:15:46.847Z,59.51
2023-04-24T17:18:16.212Z,57.57
2023-04-24T17:20:44.558Z,61.21
2023-04-24T17:23:13.855Z,60.85
2023-04-24T17:25:41.759Z,60.92
2023-04-24T17:28:16.995Z,62.12
2023-04-24T17:30:44.565Z,58.80
2023-04-24T17:33:12.193Z,60.07
2023-04-24T17:35:41.226Z,60.24
2023-04-24T17:38:08.967Z,61.13
2023-04-24T17:40:38.112Z,61.42
2023-04-24T17:43:06.110Z,62.04
2023-04-24T17:45:33.819Z,61.98
2023-04-24T17:48:01.558Z,62.13
2023-04-24T17:50:29.296Z,60.65
2023-04-24T17:52:58.310Z,59.09
2023-04-24T17:55:25.931Z,61.98
2023-04-24T17:57:53.627Z,61.70
2023-04-24T18:00:21.598Z,61.25
2023-04-24T18:02:49.726Z,62.98
2023-04-24T18:05:17.805Z,63.88
2023-04-24T18:07:45.406Z,64.53
2023-04-24T18:10:14.402Z,64.23
2023-04-24T18:12:42.859Z,60.18
2023-04-24T18:15:16.400Z,59.51
2023-04-24T18:17:44.518Z,63.55
2023-04-24T18:20:14.216Z,64.66
2023-04-24T18:22:42.939Z,62.78
2023-04-24T18:25:12.494Z,65.16
2023-04-24T18:27:42.762Z,65.16
2023-04-24T18:30:14.421Z,65.02
2023-04-24T18:32:43.100Z,66.54
2023-04-24T18:35:11.974Z,66.40
2023-04-24T18:37:40.695Z,65.88
2023-04-24T18:40:11.756Z,62.13
2023-04-24T18:42:41.823Z,64.40
2023-04-24T18:45:13.845Z,63.20
2023-04-24T18:47:44.096Z,61.33
2023-04-24T18:50:14.816Z,67.03
2023-04-24T18:52:44.334Z,63.59
2023-04-24T18:55:12.811Z,68.81
2023-04-24T18:57:42.006Z,62.36
2023-04-24T19:00:11.286Z,63.48
2023-04-24T19:02:39.539Z,66.81
2023-04-24T19:05:16.499Z,63.24
2023-04-24T19:07:47.532Z,66.77
2023-04-24T19:10:15.141Z,68.43
2023-04-24T19:12:44.209Z,63.40
2023-04-24T19:15:12.918Z,62.44
2023-04-24T19:17:40.678Z,62.45
2023-04-24T19:20:09.211Z,62.46
2023-04-24T19:22:37.055Z,62.69
2023-04-24T19:25:05.495Z,62.78
2023-04-24T19:27:33.375Z,63.07
2023-04-24T19:30:02.717Z,63.06
2023-04-24T19:32:30.399Z,63.22
2023-04-24T19:34:58.247Z,63.44
2023-04-24T19:37:26.094Z,63.94
2023-04-24T19:39:53.965Z,63.23
2023-04-24T19:42:31.830Z,63.36
2023-04-24T19:45:12.325Z,63.13
2023-04-24T19:47:40.513Z,63.09
2023-04-24T19:50:09.325Z,63.25
2023-04-24T19:52:37.109Z,63.17
2023-04-24T19:55:05.024Z,63.27
2023-04-24T19:57:32.765Z,63.54
2023-04-24T20:00:00.592Z,63.54
2023-04-24T20:02:29.834Z,63.80
2023-04-24T20:04:57.750Z,63.91
2023-04-24T20:07:25.996Z,63.92
2023-04-24T20:09:53.673Z,63.77
2023-04-24T20:12:21.426Z,63.94
2023-04-24T20:14:49.318Z,63.70
2023-04-24T20:17:17.396Z,63.52
2023-04-24T20:19:46.726Z,65.36
2023-04-24T20:22:14.798Z,64.43
2023-04-24T20:24:42.590Z,63.69
2023-04-24T20:27:12.472Z,64.13
2023-04-24T20:29:40.248Z,64.52
2023-04-24T20:32:08.276Z,64.91
2023-04-24T20:34:36.072Z,65.27
2023-04-24T20:37:06.234Z,65.53
2023-04-24T20:39:34.024Z,65.75
2023-04-24T20:42:01.750Z,66.14
2023-04-24T20:44:29.658Z,66.89
2023-04-24T20:46:57.561Z,66.52
2023-04-24T20:49:25.342Z,66.24
2023-04-24T20:51:53.109Z,66.09
2023-04-24T20:54:22.444Z,66.44
2023-04-24T20:56:50.259Z,66.42
2023-04-24T20:59:18.467Z,66.46
2023-04-24T21:01:48.026Z,66.92
2023-04-24T21:04:15.972Z,67.23
2023-04-24T21:06:44.454Z,67.21
2023-04-24T21:09:12.214Z,68.49
2023-04-24T21:11:41.469Z,67.28
2023-04-24T21:14:09.181Z,67.01
2023-04-24T21:16:36.975Z,66.84
2023-04-24T21:19:04.574Z,67.85
2023-04-24T21:21:32.116Z,67.50
2023-04-24T21:24:02.069Z,67.19
2023-04-24T21:26:29.814Z,70.23
2023-04-24T21:28:58.811Z,69.95
2023-04-24T21:31:26.528Z,69.25
2023-04-24T21:33:54.134Z,70.10
2023-04-24T21:36:21.701Z,73.21
2023-04-24T21:38:49.898Z,73.64
2023-04-24T21:41:17.479Z,72.34
2023-04-24T21:43:46.631Z,69.99
2023-04-24T21:46:16.967Z,68.00
2023-04-24T21:48:44.632Z,69.73
2023-04-24T21:51:12.445Z,72.29
2023-04-24T21:53:41.059Z,72.79
2023-04-24T21:56:09.100Z,71.45
2023-04-24T21:58:37.462Z,68.05
2023-04-24T22:01:05.213Z,68.18
2023-04-24T22:03:34.913Z,66.51
2023-04-24T22:06:02.824Z,66.73
2023-04-24T22:08:30.412Z,68.05
2023-04-24T22:10:58.059Z,66.63
2023-04-24T22:13:25.699Z,65.86
2023-04-24T22:15:53.328Z,65.87
2023-04-24T22:18:21.038Z,65.70
2023-04-24T22:20:50.616Z,65.80
2023-04-24T22:23:18.214Z,65.54
2023-04-24T22:25:45.784Z,65.38
2023-04-24T22:28:13.407Z,65.37
2023-04-24T22:30:41.075Z,65.64
2023-04-24T22:33:09.082Z,66.14
2023-04-24T22:35:37.483Z,66.34
2023-04-24T22:38:06.440Z,66.30
2023-04-24T22:40:34.957Z,70.11
2023-04-24T22:43:02.749Z,73.10
2023-04-24T22:45:30.439Z,69.25
2023-04-24T22:47:58.047Z,67.75
2023-04-24T22:50:25.679Z,67.31
2023-04-24T22:52:54.402Z,67.32
2023-04-24T22:55:23.444Z,67.28
2023-04-24T22:57:51.358Z,67.25
2023-04-24T23:00:19.644Z,67.36
2023-04-24T23:02:47.432Z,67.37
2023-04-24T23:05:15.334Z,66.90
2023-04-24T23:07:43.119Z,66.97
2023-04-24T23:10:11.357Z,66.68
2023-04-24T23:12:40.639Z,66.73
2023-04-24T23:15:09.909Z,67.17
2023-04-24T23:17:37.597Z,66.74
2023-04-24T23:20:05.978Z,66.74
2023-04-24T23:22:33.596Z,69.09
2023-04-24T23:25:01.931Z,69.82
2023-04-24T23:27:29.539Z,71.58
2023-04-24T23:29:58.424Z,72.55
2023-04-24T23:32:26.105Z,72.03
2023-04-24T23:34:53.810Z,69.50
2023-04-24T23:37:21.483Z,72.87
2023-04-24T23:39:49.906Z,71.17
2023-04-24T23:42:17.670Z,73.93
2023-04-24T23:44:45.317Z,69.79
2023-04-24T23:47:14.678Z,68.20
2023-04-24T23:49:44.631Z,69.85
2023-04-24T23:52:12.448Z,72.54
2023-04-24T23:54:40.018Z,69.08
2023-04-24T23:57:07.616Z,67.52
2023-04-24T23:59:35.640Z,69.52
